sensor_id;sensor_type;location;lat;lon;timestamp;P1;durP1;ratioP1;P2;durP2;ratioP2
49852;SDS011;35751;48.072;11.688;2022-08-06T00:01:06;8.70;;;6.03;;
49852;SDS011;35751;48.072;11.688;2022-08-06T00:03:31;8.68;;;6.35;;
49852;SDS011;35751;48.072;11.688;2022-08-06T00:05:57;6.50;;;5.80;;
49852;SDS011;35751;48.072;11.688;2022-08-06T00:08:22;6.78;;;5.13;;
49852;SDS011;35751;48.072;11.688;2022-08-06T00:10:48;5.65;;;4.70;;
49852;SDS011;35751;48.072;11.688;2022-08-06T00:13:13;5.30;;;4.80;;
49852;SDS011;35751;48.072;11.688;2022-08-06T00:15:38;6.05;;;4.78;;
49852;SDS011;35751;48.072;11.688;2022-08-06T00:18:04;6.72;;;4.38;;
49852;SDS011;35751;48.072;11.688;2022-08-06T00:20:30;5.78;;;4.60;;
49852;SDS011;35751;48.072;11.688;2022-08-06T00:22:55;5.97;;;4.50;;
49852;SDS011;35751;48.072;11.688;2022-08-06T00:25:21;10.23;;;4.63;;
49852;SDS011;35751;48.072;11.688;2022-08-06T00:27:46;6.80;;;4.30;;
49852;SDS011;35751;48.072;11.688;2022-08-06T00:30:12;6.82;;;5.03;;
49852;SDS011;35751;48.072;11.688;2022-08-06T00:32:37;5.57;;;4.38;;
49852;SDS011;35751;48.072;11.688;2022-08-06T00:35:03;5.22;;;3.63;;
49852;SDS011;35751;48.072;11.688;2022-08-06T00:37:29;6.35;;;4.25;;
49852;SDS011;35751;48.072;11.688;2022-08-06T00:39:57;6.63;;;4.68;;
49852;SDS011;35751;48.072;11.688;2022-08-06T00:42:25;4.80;;;3.63;;
49852;SDS011;35751;48.072;11.688;2022-08-06T00:44:51;6.97;;;5.15;;
49852;SDS011;35751;48.072;11.688;2022-08-06T00:47:17;6.35;;;3.55;;
49852;SDS011;35751;48.072;11.688;2022-08-06T00:49:42;5.05;;;4.30;;
49852;SDS011;35751;48.072;11.688;2022-08-06T00:52:08;7.25;;;4.13;;
49852;SDS011;35751;48.072;11.688;2022-08-06T00:54:33;5.85;;;4.55;;
49852;SDS011;35751;48.072;11.688;2022-08-06T00:56:58;8.10;;;4.70;;
49852;SDS011;35751;48.072;11.688;2022-08-06T00:59:24;6.68;;;4.40;;
49852;SDS011;35751;48.072;11.688;2022-08-06T01:01:49;7.80;;;4.57;;
49852;SDS011;35751;48.072;11.688;2022-08-06T01:04:14;6.40;;;5.15;;
49852;SDS011;35751;48.072;11.688;2022-08-06T01:06:40;5.00;;;4.20;;
49852;SDS011;35751;48.072;11.688;2022-08-06T01:09:05;5.70;;;4.53;;
49852;SDS011;35751;48.072;11.688;2022-08-06T01:11:31;4.93;;;3.92;;
49852;SDS011;35751;48.072;11.688;2022-08-06T01:13:56;4.63;;;3.85;;
49852;SDS011;35751;48.072;11.688;2022-08-06T01:16:27;5.47;;;4.15;;
49852;SDS011;35751;48.072;11.688;2022-08-06T01:21:35;4.65;;;4.00;;
49852;SDS011;35751;48.072;11.688;2022-08-06T01:24:21;9.10;;;4.05;;
49852;SDS011;35751;48.072;11.688;2022-08-06T01:27:17;4.75;;;3.47;;
49852;SDS011;35751;48.072;11.688;2022-08-06T01:29:51;7.15;;;3.35;;
49852;SDS011;35751;48.072;11.688;2022-08-06T01:32:25;4.25;;;3.67;;
49852;SDS011;35751;48.072;11.688;2022-08-06T01:34:59;5.27;;;3.43;;
49852;SDS011;35751;48.072;11.688;2022-08-06T01:37:32;3.97;;;3.15;;
49852;SDS011;35751;48.072;11.688;2022-08-06T01:40:06;3.78;;;3.10;;
49852;SDS011;35751;48.072;11.688;2022-08-06T01:42:35;5.43;;;3.88;;
49852;SDS011;35751;48.072;11.688;2022-08-06T01:45:02;4.57;;;3.95;;
49852;SDS011;35751;48.072;11.688;2022-08-06T01:47:32;5.65;;;3.80;;
49852;SDS011;35751;48.072;11.688;2022-08-06T01:49:59;4.50;;;3.78;;
49852;SDS011;35751;48.072;11.688;2022-08-06T01:52:28;6.20;;;4.20;;
49852;SDS011;35751;48.072;11.688;2022-08-06T01:54:55;4.88;;;4.10;;
49852;SDS011;35751;48.072;11.688;2022-08-06T01:57:23;4.90;;;4.28;;
49852;SDS011;35751;48.072;11.688;2022-08-06T01:59:50;8.30;;;4.85;;
49852;SDS011;35751;48.072;11.688;2022-08-06T02:02:18;5.78;;;4.55;;
49852;SDS011;35751;48.072;11.688;2022-08-06T02:04:45;5.18;;;4.00;;
49852;SDS011;35751;48.072;11.688;2022-08-06T02:07:13;5.90;;;4.28;;
49852;SDS011;35751;48.072;11.688;2022-08-06T02:09:40;4.80;;;3.85;;
49852;SDS011;35751;48.072;11.688;2022-08-06T02:12:08;5.07;;;3.83;;
49852;SDS011;35751;48.072;11.688;2022-08-06T02:14:44;5.83;;;4.63;;
49852;SDS011;35751;48.072;11.688;2022-08-06T02:17:12;5.15;;;3.40;;
49852;SDS011;35751;48.072;11.688;2022-08-06T02:19:40;4.78;;;3.90;;
49852;SDS011;35751;48.072;11.688;2022-08-06T02:22:08;5.40;;;4.05;;
49852;SDS011;35751;48.072;11.688;2022-08-06T02:24:35;5.55;;;3.92;;
49852;SDS011;35751;48.072;11.688;2022-08-06T02:27:01;5.25;;;3.53;;
49852;SDS011;35751;48.072;11.688;2022-08-06T02:29:27;4.47;;;3.03;;
49852;SDS011;35751;48.072;11.688;2022-08-06T02:31:53;4.10;;;2.90;;
49852;SDS011;35751;48.072;11.688;2022-08-06T02:34:19;6.00;;;3.55;;
49852;SDS011;35751;48.072;11.688;2022-08-06T02:36:45;3.47;;;3.17;;
49852;SDS011;35751;48.072;11.688;2022-08-06T02:39:24;4.35;;;3.95;;
49852;SDS011;35751;48.072;11.688;2022-08-06T02:44:55;4.07;;;3.35;;
49852;SDS011;35751;48.072;11.688;2022-08-06T02:47:33;3.67;;;3.10;;
49852;SDS011;35751;48.072;11.688;2022-08-06T02:50:03;4.28;;;3.70;;
49852;SDS011;35751;48.072;11.688;2022-08-06T02:52:52;3.80;;;3.50;;
49852;SDS011;35751;48.072;11.688;2022-08-06T02:55:19;6.07;;;3.17;;
49852;SDS011;35751;48.072;11.688;2022-08-06T02:57:49;3.30;;;2.85;;
49852;SDS011;35751;48.072;11.688;2022-08-06T03:00:16;5.20;;;3.65;;
49852;SDS011;35751;48.072;11.688;2022-08-06T03:02:42;4.95;;;3.20;;
49852;SDS011;35751;48.072;11.688;2022-08-06T03:05:10;4.70;;;3.38;;
49852;SDS011;35751;48.072;11.688;2022-08-06T03:07:38;6.47;;;3.65;;
49852;SDS011;35751;48.072;11.688;2022-08-06T03:10:05;3.60;;;2.95;;
49852;SDS011;35751;48.072;11.688;2022-08-06T03:12:31;4.47;;;3.70;;
49852;SDS011;35751;48.072;11.688;2022-08-06T03:14:59;5.15;;;3.85;;
49852;SDS011;35751;48.072;11.688;2022-08-06T03:17:30;5.85;;;3.63;;
49852;SDS011;35751;48.072;11.688;2022-08-06T03:19:56;5.47;;;3.53;;
49852;SDS011;35751;48.072;11.688;2022-08-06T03:22:23;5.22;;;3.65;;
49852;SDS011;35751;48.072;11.688;2022-08-06T03:24:50;5.32;;;3.67;;
49852;SDS011;35751;48.072;11.688;2022-08-06T03:27:15;5.35;;;3.45;;
49852;SDS011;35751;48.072;11.688;2022-08-06T03:29:41;4.22;;;3.80;;
49852;SDS011;35751;48.072;11.688;2022-08-06T03:32:07;4.72;;;3.67;;
49852;SDS011;35751;48.072;11.688;2022-08-06T03:34:33;4.95;;;3.85;;
49852;SDS011;35751;48.072;11.688;2022-08-06T03:37:00;4.85;;;4.13;;
49852;SDS011;35751;48.072;11.688;2022-08-06T03:39:26;8.55;;;4.38;;
49852;SDS011;35751;48.072;11.688;2022-08-06T03:41:52;8.82;;;4.40;;
49852;SDS011;35751;48.072;11.688;2022-08-06T03:44:18;6.25;;;4.60;;
49852;SDS011;35751;48.072;11.688;2022-08-06T03:46:46;6.32;;;4.65;;
49852;SDS011;35751;48.072;11.688;2022-08-06T03:49:18;6.50;;;4.70;;
49852;SDS011;35751;48.072;11.688;2022-08-06T03:51:46;7.40;;;5.45;;
49852;SDS011;35751;48.072;11.688;2022-08-06T03:54:12;7.43;;;5.10;;
49852;SDS011;35751;48.072;11.688;2022-08-06T03:56:39;7.85;;;5.70;;
49852;SDS011;35751;48.072;11.688;2022-08-06T03:59:06;9.23;;;6.55;;
49852;SDS011;35751;48.072;11.688;2022-08-06T04:01:34;9.27;;;5.97;;
49852;SDS011;35751;48.072;11.688;2022-08-06T04:04:01;8.80;;;6.70;;
49852;SDS011;35751;48.072;11.688;2022-08-06T04:06:27;10.75;;;7.45;;
49852;SDS011;35751;48.072;11.688;2022-08-06T04:08:53;8.75;;;6.65;;
49852;SDS011;35751;48.072;11.688;2022-08-06T04:11:19;9.38;;;6.80;;
49852;SDS011;35751;48.072;11.688;2022-08-06T04:13:44;12.00;;;7.40;;
49852;SDS011;35751;48.072;11.688;2022-08-06T04:16:10;11.93;;;9.10;;
49852;SDS011;35751;48.072;11.688;2022-08-06T04:18:38;13.30;;;8.60;;
49852;SDS011;35751;48.072;11.688;2022-08-06T04:21:04;11.85;;;8.93;;
49852;SDS011;35751;48.072;11.688;2022-08-06T04:23:32;10.00;;;7.18;;
49852;SDS011;35751;48.072;11.688;2022-08-06T04:25:58;12.70;;;9.25;;
49852;SDS011;35751;48.072;11.688;2022-08-06T04:28:27;12.35;;;8.18;;
49852;SDS011;35751;48.072;11.688;2022-08-06T04:30:54;14.00;;;8.80;;
49852;SDS011;35751;48.072;11.688;2022-08-06T04:33:21;20.08;;;13.45;;
49852;SDS011;35751;48.072;11.688;2022-08-06T04:35:47;19.48;;;12.50;;
49852;SDS011;35751;48.072;11.688;2022-08-06T04:38:13;16.83;;;12.07;;
49852;SDS011;35751;48.072;11.688;2022-08-06T04:40:40;19.20;;;13.02;;
49852;SDS011;35751;48.072;11.688;2022-08-06T04:43:07;18.35;;;12.07;;
49852;SDS011;35751;48.072;11.688;2022-08-06T04:45:34;15.07;;;11.55;;
49852;SDS011;35751;48.072;11.688;2022-08-06T04:48:02;22.48;;;13.77;;
49852;SDS011;35751;48.072;11.688;2022-08-06T04:50:30;20.45;;;12.95;;
49852;SDS011;35751;48.072;11.688;2022-08-06T04:53:13;18.52;;;11.52;;
49852;SDS011;35751;48.072;11.688;2022-08-06T04:55:40;20.00;;;12.00;;
49852;SDS011;35751;48.072;11.688;2022-08-06T04:58:07;20.13;;;12.07;;
49852;SDS011;35751;48.072;11.688;2022-08-06T05:00:34;20.83;;;12.35;;
49852;SDS011;35751;48.072;11.688;2022-08-06T05:03:02;17.58;;;11.57;;
49852;SDS011;35751;48.072;11.688;2022-08-06T05:05:33;21.77;;;12.80;;
49852;SDS011;35751;48.072;11.688;2022-08-06T05:08:01;16.75;;;12.35;;
49852;SDS011;35751;48.072;11.688;2022-08-06T05:10:51;22.67;;;14.35;;
49852;SDS011;35751;48.072;11.688;2022-08-06T05:13:16;22.70;;;15.88;;
49852;SDS011;35751;48.072;11.688;2022-08-06T05:15:45;19.05;;;13.30;;
49852;SDS011;35751;48.072;11.688;2022-08-06T05:18:19;21.40;;;14.60;;
49852;SDS011;35751;48.072;11.688;2022-08-06T05:20:47;18.30;;;14.70;;
49852;SDS011;35751;48.072;11.688;2022-08-06T05:23:15;18.92;;;13.07;;
49852;SDS011;35751;48.072;11.688;2022-08-06T05:25:43;17.35;;;12.85;;
49852;SDS011;35751;48.072;11.688;2022-08-06T05:28:09;16.55;;;12.20;;
49852;SDS011;35751;48.072;11.688;2022-08-06T05:30:41;18.83;;;12.10;;
49852;SDS011;35751;48.072;11.688;2022-08-06T05:33:07;17.30;;;13.10;;
49852;SDS011;35751;48.072;11.688;2022-08-06T05:35:32;18.58;;;12.48;;
49852;SDS011;35751;48.072;11.688;2022-08-06T05:38:00;16.48;;;11.57;;
49852;SDS011;35751;48.072;11.688;2022-08-06T05:40:25;13.32;;;8.90;;
49852;SDS011;35751;48.072;11.688;2022-08-06T05:42:58;13.18;;;9.65;;
49852;SDS011;35751;48.072;11.688;2022-08-06T05:45:23;11.75;;;8.57;;
49852;SDS011;35751;48.072;11.688;2022-08-06T05:47:49;12.43;;;8.80;;
49852;SDS011;35751;48.072;11.688;2022-08-06T05:50:15;13.27;;;9.85;;
49852;SDS011;35751;48.072;11.688;2022-08-06T05:52:48;9.98;;;8.35;;
49852;SDS011;35751;48.072;11.688;2022-08-06T05:55:18;10.32;;;9.23;;
49852;SDS011;35751;48.072;11.688;2022-08-06T05:57:54;10.70;;;8.50;;
49852;SDS011;35751;48.072;11.688;2022-08-06T06:00:23;13.20;;;8.52;;
49852;SDS011;35751;48.072;11.688;2022-08-06T06:02:52;13.30;;;9.15;;
49852;SDS011;35751;48.072;11.688;2022-08-06T06:05:18;9.93;;;8.27;;
49852;SDS011;35751;48.072;11.688;2022-08-06T06:07:45;10.15;;;7.60;;
49852;SDS011;35751;48.072;11.688;2022-08-06T06:10:11;10.77;;;8.48;;
49852;SDS011;35751;48.072;11.688;2022-08-06T06:12:37;9.77;;;8.10;;
49852;SDS011;35751;48.072;11.688;2022-08-06T06:15:04;9.60;;;7.93;;
49852;SDS011;35751;48.072;11.688;2022-08-06T06:20:32;8.50;;;6.45;;
49852;SDS011;35751;48.072;11.688;2022-08-06T06:31:44;8.35;;;7.13;;
49852;SDS011;35751;48.072;11.688;2022-08-06T06:34:13;7.38;;;6.65;;
49852;SDS011;35751;48.072;11.688;2022-08-06T06:37:02;7.32;;;6.63;;
49852;SDS011;35751;48.072;11.688;2022-08-06T06:39:32;10.18;;;7.95;;
49852;SDS011;35751;48.072;11.688;2022-08-06T06:42:34;9.50;;;7.53;;
49852;SDS011;35751;48.072;11.688;2022-08-06T06:47:48;10.48;;;9.30;;
49852;SDS011;35751;48.072;11.688;2022-08-06T06:50:19;9.52;;;8.50;;
49852;SDS011;35751;48.072;11.688;2022-08-06T06:52:49;12.55;;;11.18;;
49852;SDS011;35751;48.072;11.688;2022-08-06T06:58:06;13.65;;;12.07;;
49852;SDS011;35751;48.072;11.688;2022-08-06T07:00:34;16.52;;;12.95;;
49852;SDS011;35751;48.072;11.688;2022-08-06T07:03:00;15.20;;;13.65;;
49852;SDS011;35751;48.072;11.688;2022-08-06T07:05:27;17.05;;;15.25;;
49852;SDS011;35751;48.072;11.688;2022-08-06T07:07:53;19.10;;;14.55;;
49852;SDS011;35751;48.072;11.688;2022-08-06T07:10:19;17.98;;;15.20;;
49852;SDS011;35751;48.072;11.688;2022-08-06T07:12:45;18.30;;;15.57;;
49852;SDS011;35751;48.072;11.688;2022-08-06T07:15:12;17.52;;;15.13;;
49852;SDS011;35751;48.072;11.688;2022-08-06T07:17:39;20.90;;;15.90;;
49852;SDS011;35751;48.072;11.688;2022-08-06T07:20:06;18.73;;;15.25;;
49852;SDS011;35751;48.072;11.688;2022-08-06T07:22:34;19.75;;;15.27;;
49852;SDS011;35751;48.072;11.688;2022-08-06T07:25:01;15.38;;;13.43;;
49852;SDS011;35751;48.072;11.688;2022-08-06T07:27:32;18.15;;;15.30;;
49852;SDS011;35751;48.072;11.688;2022-08-06T07:29:59;14.50;;;12.57;;
49852;SDS011;35751;48.072;11.688;2022-08-06T07:32:27;15.40;;;12.43;;
49852;SDS011;35751;48.072;11.688;2022-08-06T07:34:53;15.38;;;13.18;;
49852;SDS011;35751;48.072;11.688;2022-08-06T07:37:19;15.77;;;13.43;;
49852;SDS011;35751;48.072;11.688;2022-08-06T07:39:46;16.17;;;12.90;;
49852;SDS011;35751;48.072;11.688;2022-08-06T07:42:13;18.27;;;13.75;;
49852;SDS011;35751;48.072;11.688;2022-08-06T07:44:42;16.90;;;14.00;;
49852;SDS011;35751;48.072;11.688;2022-08-06T07:47:08;15.52;;;13.80;;
49852;SDS011;35751;48.072;11.688;2022-08-06T07:49:40;15.52;;;12.55;;
49852;SDS011;35751;48.072;11.688;2022-08-06T07:52:07;16.17;;;13.02;;
49852;SDS011;35751;48.072;11.688;2022-08-06T07:54:34;17.58;;;13.60;;
49852;SDS011;35751;48.072;11.688;2022-08-06T07:57:00;13.70;;;11.73;;
49852;SDS011;35751;48.072;11.688;2022-08-06T07:59:25;13.48;;;11.80;;
49852;SDS011;35751;48.072;11.688;2022-08-06T08:01:51;14.20;;;12.05;;
49852;SDS011;35751;48.072;11.688;2022-08-06T08:04:17;13.18;;;11.88;;
49852;SDS011;35751;48.072;11.688;2022-08-06T08:07:02;14.65;;;11.80;;
49852;SDS011;35751;48.072;11.688;2022-08-06T08:09:29;13.27;;;11.77;;
49852;SDS011;35751;48.072;11.688;2022-08-06T08:11:55;15.43;;;13.20;;
49852;SDS011;35751;48.072;11.688;2022-08-06T08:14:22;17.33;;;13.68;;
49852;SDS011;35751;48.072;11.688;2022-08-06T08:16:48;17.40;;;13.88;;
49852;SDS011;35751;48.072;11.688;2022-08-06T08:21:56;18.13;;;14.68;;
49852;SDS011;35751;48.072;11.688;2022-08-06T08:24:23;19.52;;;14.82;;
49852;SDS011;35751;48.072;11.688;2022-08-06T08:26:49;16.73;;;14.05;;
49852;SDS011;35751;48.072;11.688;2022-08-06T08:29:15;20.83;;;16.20;;
49852;SDS011;35751;48.072;11.688;2022-08-06T08:31:40;19.15;;;15.80;;
49852;SDS011;35751;48.072;11.688;2022-08-06T08:34:06;21.35;;;16.27;;
49852;SDS011;35751;48.072;11.688;2022-08-06T08:36:31;19.52;;;15.80;;
49852;SDS011;35751;48.072;11.688;2022-08-06T08:38:57;18.48;;;14.85;;
49852;SDS011;35751;48.072;11.688;2022-08-06T08:41:26;17.40;;;15.13;;
49852;SDS011;35751;48.072;11.688;2022-08-06T08:44:00;21.27;;;15.73;;
49852;SDS011;35751;48.072;11.688;2022-08-06T08:46:27;19.35;;;15.60;;
49852;SDS011;35751;48.072;11.688;2022-08-06T08:49:18;18.27;;;16.30;;
49852;SDS011;35751;48.072;11.688;2022-08-06T08:51:45;17.85;;;14.90;;
49852;SDS011;35751;48.072;11.688;2022-08-06T08:54:13;19.58;;;14.80;;
49852;SDS011;35751;48.072;11.688;2022-08-06T08:56:42;18.55;;;14.88;;
49852;SDS011;35751;48.072;11.688;2022-08-06T08:59:09;18.08;;;15.90;;
49852;SDS011;35751;48.072;11.688;2022-08-06T09:01:34;24.33;;;17.67;;
49852;SDS011;35751;48.072;11.688;2022-08-06T09:04:03;19.63;;;15.48;;
49852;SDS011;35751;48.072;11.688;2022-08-06T09:06:29;24.05;;;16.92;;
49852;SDS011;35751;48.072;11.688;2022-08-06T09:08:55;21.90;;;16.13;;
49852;SDS011;35751;48.072;11.688;2022-08-06T09:11:21;20.63;;;16.75;;
49852;SDS011;35751;48.072;11.688;2022-08-06T09:13:47;23.65;;;16.83;;
49852;SDS011;35751;48.072;11.688;2022-08-06T09:16:12;25.85;;;17.13;;
49852;SDS011;35751;48.072;11.688;2022-08-06T09:18:38;22.70;;;17.73;;
49852;SDS011;35751;48.072;11.688;2022-08-06T09:21:03;22.83;;;17.63;;
49852;SDS011;35751;48.072;11.688;2022-08-06T09:23:29;23.63;;;17.83;;
49852;SDS011;35751;48.072;11.688;2022-08-06T09:25:54;24.52;;;18.88;;
49852;SDS011;35751;48.072;11.688;2022-08-06T09:28:36;20.13;;;16.27;;
49852;SDS011;35751;48.072;11.688;2022-08-06T09:31:09;21.73;;;16.73;;
49852;SDS011;35751;48.072;11.688;2022-08-06T09:33:40;19.90;;;17.33;;
49852;SDS011;35751;48.072;11.688;2022-08-06T09:38:54;22.63;;;16.77;;
49852;SDS011;35751;48.072;11.688;2022-08-06T09:41:22;21.15;;;16.95;;
49852;SDS011;35751;48.072;11.688;2022-08-06T09:43:51;20.85;;;16.73;;
49852;SDS011;35751;48.072;11.688;2022-08-06T09:46:18;22.08;;;16.67;;
49852;SDS011;35751;48.072;11.688;2022-08-06T09:49:01;19.85;;;16.15;;
49852;SDS011;35751;48.072;11.688;2022-08-06T09:51:28;18.55;;;15.05;;
49852;SDS011;35751;48.072;11.688;2022-08-06T09:53:55;21.38;;;16.27;;
49852;SDS011;35751;48.072;11.688;2022-08-06T09:56:22;24.35;;;18.27;;
49852;SDS011;35751;48.072;11.688;2022-08-06T09:58:48;25.58;;;19.50;;
49852;SDS011;35751;48.072;11.688;2022-08-06T10:01:23;23.05;;;18.27;;
49852;SDS011;35751;48.072;11.688;2022-08-06T10:03:49;25.58;;;18.90;;
49852;SDS011;35751;48.072;11.688;2022-08-06T10:06:17;30.33;;;21.00;;
49852;SDS011;35751;48.072;11.688;2022-08-06T10:08:46;28.38;;;20.85;;
49852;SDS011;35751;48.072;11.688;2022-08-06T10:11:13;29.17;;;20.95;;
49852;SDS011;35751;48.072;11.688;2022-08-06T10:13:38;25.88;;;20.08;;
49852;SDS011;35751;48.072;11.688;2022-08-06T10:16:14;29.23;;;21.63;;
49852;SDS011;35751;48.072;11.688;2022-08-06T10:18:44;26.83;;;20.63;;
49852;SDS011;35751;48.072;11.688;2022-08-06T10:21:15;24.88;;;20.08;;
49852;SDS011;35751;48.072;11.688;2022-08-06T10:23:47;29.33;;;21.15;;
49852;SDS011;35751;48.072;11.688;2022-08-06T10:26:16;27.30;;;21.23;;
49852;SDS011;35751;48.072;11.688;2022-08-06T10:28:46;26.15;;;20.67;;
49852;SDS011;35751;48.072;11.688;2022-08-06T10:31:14;24.27;;;18.90;;
49852;SDS011;35751;48.072;11.688;2022-08-06T10:36:27;24.95;;;19.70;;
49852;SDS011;35751;48.072;11.688;2022-08-06T10:38:55;23.67;;;18.92;;
49852;SDS011;35751;48.072;11.688;2022-08-06T10:41:21;25.50;;;18.30;;
49852;SDS011;35751;48.072;11.688;2022-08-06T10:43:46;23.38;;;19.40;;
49852;SDS011;35751;48.072;11.688;2022-08-06T10:46:13;23.48;;;18.70;;
49852;SDS011;35751;48.072;11.688;2022-08-06T10:48:40;21.25;;;16.55;;
49852;SDS011;35751;48.072;11.688;2022-08-06T10:51:08;17.52;;;14.90;;
49852;SDS011;35751;48.072;11.688;2022-08-06T10:53:35;19.25;;;15.15;;
49852;SDS011;35751;48.072;11.688;2022-08-06T10:56:03;19.85;;;15.88;;
49852;SDS011;35751;48.072;11.688;2022-08-06T10:58:31;21.50;;;15.63;;
49852;SDS011;35751;48.072;11.688;2022-08-06T11:00:57;17.88;;;15.10;;
49852;SDS011;35751;48.072;11.688;2022-08-06T11:05:59;16.98;;;14.57;;
49852;SDS011;35751;48.072;11.688;2022-08-06T11:08:57;18.90;;;16.10;;
49852;SDS011;35751;48.072;11.688;2022-08-06T11:14:12;18.70;;;15.32;;
49852;SDS011;35751;48.072;11.688;2022-08-06T11:16:39;23.10;;;16.70;;
49852;SDS011;35751;48.072;11.688;2022-08-06T11:19:05;21.75;;;16.65;;
49852;SDS011;35751;48.072;11.688;2022-08-06T11:21:45;16.35;;;14.65;;
49852;SDS011;35751;48.072;11.688;2022-08-06T11:24:11;17.33;;;13.52;;
49852;SDS011;35751;48.072;11.688;2022-08-06T11:26:39;16.40;;;14.65;;
49852;SDS011;35751;48.072;11.688;2022-08-06T11:29:07;17.77;;;13.88;;
49852;SDS011;35751;48.072;11.688;2022-08-06T11:31:43;16.27;;;14.07;;
49852;SDS011;35751;48.072;11.688;2022-08-06T11:34:12;16.90;;;13.88;;
49852;SDS011;35751;48.072;11.688;2022-08-06T11:39:15;12.93;;;11.52;;
49852;SDS011;35751;48.072;11.688;2022-08-06T11:41:46;13.75;;;11.80;;
49852;SDS011;35751;48.072;11.688;2022-08-06T11:44:19;14.60;;;12.25;;
49852;SDS011;35751;48.072;11.688;2022-08-06T11:46:46;13.82;;;11.68;;
49852;SDS011;35751;48.072;11.688;2022-08-06T11:49:17;13.45;;;11.90;;
49852;SDS011;35751;48.072;11.688;2022-08-06T11:51:59;14.57;;;12.57;;
49852;SDS011;35751;48.072;11.688;2022-08-06T11:54:29;15.55;;;10.98;;
49852;SDS011;35751;48.072;11.688;2022-08-06T11:59:27;12.25;;;10.88;;
49852;SDS011;35751;48.072;11.688;2022-08-06T12:01:55;13.50;;;10.77;;
49852;SDS011;35751;48.072;11.688;2022-08-06T12:09:43;13.15;;;10.82;;
49852;SDS011;35751;48.072;11.688;2022-08-06T12:14:50;13.38;;;11.98;;
49852;SDS011;35751;48.072;11.688;2022-08-06T12:17:19;14.35;;;12.68;;
49852;SDS011;35751;48.072;11.688;2022-08-06T12:19:46;15.57;;;12.52;;
49852;SDS011;35751;48.072;11.688;2022-08-06T12:22:13;14.75;;;11.88;;
49852;SDS011;35751;48.072;11.688;2022-08-06T12:24:40;13.63;;;12.25;;
49852;SDS011;35751;48.072;11.688;2022-08-06T12:27:07;13.93;;;12.52;;
49852;SDS011;35751;48.072;11.688;2022-08-06T12:29:35;15.48;;;13.88;;
49852;SDS011;35751;48.072;11.688;2022-08-06T12:32:01;16.73;;;14.90;;
49852;SDS011;35751;48.072;11.688;2022-08-06T12:34:27;13.07;;;11.60;;
49852;SDS011;35751;48.072;11.688;2022-08-06T12:36:54;14.05;;;12.57;;
49852;SDS011;35751;48.072;11.688;2022-08-06T12:39:21;17.15;;;14.05;;
49852;SDS011;35751;48.072;11.688;2022-08-06T12:42:20;15.57;;;12.93;;
49852;SDS011;35751;48.072;11.688;2022-08-06T12:44:46;17.65;;;13.00;;
49852;SDS011;35751;48.072;11.688;2022-08-06T12:47:12;15.57;;;13.15;;
49852;SDS011;35751;48.072;11.688;2022-08-06T12:49:37;18.38;;;16.20;;
49852;SDS011;35751;48.072;11.688;2022-08-06T12:52:13;15.55;;;13.30;;
49852;SDS011;35751;48.072;11.688;2022-08-06T12:54:38;17.08;;;14.05;;
49852;SDS011;35751;48.072;11.688;2022-08-06T12:57:04;16.17;;;13.90;;
49852;SDS011;35751;48.072;11.688;2022-08-06T12:59:30;18.48;;;13.77;;
49852;SDS011;35751;48.072;11.688;2022-08-06T13:01:55;16.02;;;14.30;;
49852;SDS011;35751;48.072;11.688;2022-08-06T13:04:22;23.27;;;13.23;;
49852;SDS011;35751;48.072;11.688;2022-08-06T13:06:48;18.67;;;14.40;;
49852;SDS011;35751;48.072;11.688;2022-08-06T13:09:15;15.18;;;13.48;;
49852;SDS011;35751;48.072;11.688;2022-08-06T13:11:41;18.95;;;13.30;;
49852;SDS011;35751;48.072;11.688;2022-08-06T13:14:07;17.38;;;14.93;;
49852;SDS011;35751;48.072;11.688;2022-08-06T13:16:38;16.23;;;14.48;;
49852;SDS011;35751;48.072;11.688;2022-08-06T13:19:12;19.90;;;15.55;;
49852;SDS011;35751;48.072;11.688;2022-08-06T13:21:40;16.25;;;14.20;;
49852;SDS011;35751;48.072;11.688;2022-08-06T13:24:06;17.00;;;14.13;;
49852;SDS011;35751;48.072;11.688;2022-08-06T13:26:33;17.33;;;14.95;;
49852;SDS011;35751;48.072;11.688;2022-08-06T13:29:03;15.13;;;12.50;;
49852;SDS011;35751;48.072;11.688;2022-08-06T13:31:29;17.10;;;14.88;;
49852;SDS011;35751;48.072;11.688;2022-08-06T13:34:01;17.40;;;13.27;;
49852;SDS011;35751;48.072;11.688;2022-08-06T13:36:29;17.35;;;14.68;;
49852;SDS011;35751;48.072;11.688;2022-08-06T13:38:55;17.27;;;14.98;;
49852;SDS011;35751;48.072;11.688;2022-08-06T13:41:25;15.68;;;13.10;;
49852;SDS011;35751;48.072;11.688;2022-08-06T13:43:51;18.13;;;14.73;;
49852;SDS011;35751;48.072;11.688;2022-08-06T13:46:17;18.65;;;13.57;;
49852;SDS011;35751;48.072;11.688;2022-08-06T13:51:09;15.90;;;13.75;;
49852;SDS011;35751;48.072;11.688;2022-08-06T13:53:36;16.98;;;13.57;;
49852;SDS011;35751;48.072;11.688;2022-08-06T13:56:01;18.05;;;14.57;;
49852;SDS011;35751;48.072;11.688;2022-08-06T13:58:27;16.85;;;13.65;;
49852;SDS011;35751;48.072;11.688;2022-08-06T14:00:52;18.00;;;14.07;;
49852;SDS011;35751;48.072;11.688;2022-08-06T14:03:18;15.75;;;13.45;;
49852;SDS011;35751;48.072;11.688;2022-08-06T14:05:43;19.20;;;13.30;;
49852;SDS011;35751;48.072;11.688;2022-08-06T14:08:08;14.88;;;12.40;;
49852;SDS011;35751;48.072;11.688;2022-08-06T14:10:34;15.70;;;12.85;;
49852;SDS011;35751;48.072;11.688;2022-08-06T14:12:59;16.77;;;13.25;;
49852;SDS011;35751;48.072;11.688;2022-08-06T14:15:44;13.98;;;12.52;;
49852;SDS011;35751;48.072;11.688;2022-08-06T14:18:10;18.65;;;13.90;;
49852;SDS011;35751;48.072;11.688;2022-08-06T14:20:36;16.85;;;13.02;;
49852;SDS011;35751;48.072;11.688;2022-08-06T14:23:01;14.95;;;12.88;;
49852;SDS011;35751;48.072;11.688;2022-08-06T14:25:27;17.42;;;13.52;;
49852;SDS011;35751;48.072;11.688;2022-08-06T14:27:53;14.73;;;11.48;;
49852;SDS011;35751;48.072;11.688;2022-08-06T14:30:19;15.55;;;13.25;;
49852;SDS011;35751;48.072;11.688;2022-08-06T14:32:45;18.17;;;12.93;;
49852;SDS011;35751;48.072;11.688;2022-08-06T14:35:11;13.57;;;11.73;;
49852;SDS011;35751;48.072;11.688;2022-08-06T14:37:37;14.80;;;11.98;;
49852;SDS011;35751;48.072;11.688;2022-08-06T14:40:03;13.45;;;11.02;;
49852;SDS011;35751;48.072;11.688;2022-08-06T14:42:29;17.00;;;11.80;;
49852;SDS011;35751;48.072;11.688;2022-08-06T14:45:13;11.15;;;9.95;;
49852;SDS011;35751;48.072;11.688;2022-08-06T14:47:38;13.95;;;11.45;;
49852;SDS011;35751;48.072;11.688;2022-08-06T14:50:04;10.25;;;9.25;;
49852;SDS011;35751;48.072;11.688;2022-08-06T14:52:30;14.40;;;11.27;;
49852;SDS011;35751;48.072;11.688;2022-08-06T14:54:55;12.85;;;11.07;;
49852;SDS011;35751;48.072;11.688;2022-08-06T14:57:21;12.68;;;9.77;;
49852;SDS011;35751;48.072;11.688;2022-08-06T14:59:46;11.25;;;9.57;;
49852;SDS011;35751;48.072;11.688;2022-08-06T15:02:12;11.98;;;10.52;;
49852;SDS011;35751;48.072;11.688;2022-08-06T15:04:38;9.82;;;8.82;;
49852;SDS011;35751;48.072;11.688;2022-08-06T15:07:04;10.20;;;8.75;;
49852;SDS011;35751;48.072;11.688;2022-08-06T15:09:29;13.43;;;10.35;;
49852;SDS011;35751;48.072;11.688;2022-08-06T15:11:55;11.73;;;9.68;;
49852;SDS011;35751;48.072;11.688;2022-08-06T15:14:21;12.45;;;8.48;;
49852;SDS011;35751;48.072;11.688;2022-08-06T15:16:46;9.45;;;8.45;;